Time;durP1;ratioP1;P1;durP2;ratioP2;P2;SDS_P1;SDS_P2;PMS_P1;PMS_P2;Temp;Humidity;BMP_temperature;BMP_pressure;BME280_temperature;BME280_humidity;BME280_pressure;Samples;Min_cycle;Max_cycle;Signal;HPM_P1;HPM_P2
2023/06/14 00:00:42;;;;;;;1.17;0.95;;;;;;;24.03;34.37;100516.59;4542235;28;20068;-69
2023/06/14 00:02:55;;;;;;;1.67;1.00;;;;;;;24.00;33.85;100517.41;4541441;28;20048;-69
2023/06/14 00:05:06;;;;;;;1.20;1.10;;;;;;;24.06;33.82;100524.47;4541550;28;20527;-69
2023/06/14 00:07:18;;;;;;;1.10;1.00;;;;;;;24.05;33.45;100517.06;4543389;28;20037;-69
2023/06/14 00:09:28;;;;;;;1.45;1.05;;;;;;;24.04;33.82;100524.03;4540395;28;20111;-69
2023/06/14 00:11:41;;;;;;;1.15;1.02;;;;;;;24.00;33.62;100517.41;4542441;28;20107;-69
2023/06/14 00:13:51;;;;;;;1.63;1.10;;;;;;;24.02;33.64;100520.72;4545081;28;20048;-69
2023/06/14 00:16:03;;;;;;;1.30;1.00;;;;;;;24.04;33.93;100526.09;4542035;28;20037;-69
2023/06/14 00:18:14;;;;;;;1.08;1.00;;;;;;;24.03;33.69;100528.16;4542751;28;20589;-69
2023/06/14 00:20:25;;;;;;;2.00;1.02;;;;;;;24.03;33.37;100525.25;4541252;28;20032;-69
2023/06/14 00:22:37;;;;;;;1.23;1.10;;;;;;;24.04;33.31;100521.13;4542322;28;20512;-69
2023/06/14 00:24:47;;;;;;;1.25;1.15;;;;;;;23.92;33.08;100512.72;4540595;28;20067;-69
2023/06/14 00:26:57;;;;;;;1.75;1.00;;;;;;;24.04;33.30;100535.56;4533792;28;20025;-69
2023/06/14 00:29:08;;;;;;;1.02;0.90;;;;;;;24.03;33.47;100530.19;4550057;28;20400;-69
2023/06/14 00:31:18;;;;;;;1.23;1.00;;;;;;;24.04;33.26;100532.69;4541771;28;20317;-69
2023/06/14 00:33:29;;;;;;;1.20;1.00;;;;;;;24.05;33.26;100533.53;4549643;28;20041;-69
2023/06/14 00:35:39;;;;;;;1.30;1.00;;;;;;;24.04;33.85;100540.50;4542844;28;20037;-69
2023/06/14 00:37:50;;;;;;;1.00;0.90;;;;;;;24.03;34.48;100533.91;4542481;28;20082;-70
2023/06/14 00:40:01;;;;;;;1.10;1.00;;;;;;;24.04;34.56;100541.31;4542856;28;20183;-69
2023/06/14 00:42:22;;;;;;;1.00;0.90;;;;;;;24.00;34.63;100537.59;4543248;28;20094;-69
2023/06/14 00:44:33;;;;;;;0.90;0.90;;;;;;;24.00;34.60;100531.81;4543613;28;20092;-67
2023/06/14 00:46:47;;;;;;;1.02;0.93;;;;;;;24.05;34.61;100547.94;4541579;28;20087;-66
2023/06/14 00:49:01;;;;;;;1.10;1.00;;;;;;;24.02;35.21;100545.84;4540197;28;20040;-67
2023/06/14 00:51:11;;;;;;;1.13;1.00;;;;;;;24.02;35.29;100549.56;4541276;28;20083;-67
2023/06/14 00:53:22;;;;;;;1.10;1.00;;;;;;;24.01;34.97;100544.16;4549523;28;20509;-67
2023/06/14 00:55:33;;;;;;;1.55;1.05;;;;;;;24.01;34.83;100547.88;4539917;28;20032;-67
2023/06/14 00:57:45;;;;;;;0.90;0.90;;;;;;;24.02;35.37;100552.44;4542320;28;20238;-67
2023/06/14 00:59:57;;;;;;;1.00;0.90;;;;;;;23.95;35.50;100549.41;4541430;28;20163;-67
2023/06/14 01:02:08;;;;;;;1.20;1.10;;;;;;;24.03;34.99;100556.97;4542573;28;20562;-67
2023/06/14 01:04:21;;;;;;;1.20;0.80;;;;;;;24.00;35.32;100554.03;4541972;28;20032;-67
2023/06/14 01:07:13;;;;;;;0.90;0.82;;;;;;;24.02;35.37;100561.09;4540811;28;20036;-67
2023/06/14 01:09:47;;;;;;;1.02;1.00;;;;;;;24.01;35.31;100558.56;4541512;28;20037;-67
2023/06/14 01:12:11;;;;;;;1.00;0.90;;;;;;;24.03;34.83;100568.50;4541249;28;20704;-67
2023/06/14 01:14:25;;;;;;;1.45;1.10;;;;;;;24.03;35.11;100561.91;4542368;28;20040;-67
2023/06/14 01:16:39;;;;;;;1.00;0.90;;;;;;;24.01;34.88;100559.41;4541540;28;20138;-67
2023/06/14 01:18:56;;;;;;;1.52;0.90;;;;;;;24.00;35.30;100557.75;4549642;28;20028;-67
2023/06/14 01:21:06;;;;;;;;;;;;;;;24.03;35.33;100564.78;4541928;28;20047;-67
2023/06/14 01:23:17;;;;;;;0.95;0.90;;;;;;;24.02;35.46;100569.75;4542460;28;19927;-67
2023/06/14 01:25:28;;;;;;;1.00;0.90;;;;;;;24.00;35.21;100563.53;4540925;28;20029;-68
2023/06/14 01:27:38;;;;;;;1.20;1.08;;;;;;;23.94;35.09;100559.31;4542477;28;20481;-67
2023/06/14 01:29:56;;;;;;;1.20;1.10;;;;;;;24.01;35.28;100573.81;4539424;28;20033;-67
2023/06/14 01:32:07;;;;;;;0.98;0.90;;;;;;;24.00;35.06;100562.69;4541752;28;20043;-67
2023/06/14 01:34:17;;;;;;;1.02;0.93;;;;;;;23.91;35.16;100554.31;4542180;28;20043;-67
2023/06/14 01:36:28;;;;;;;1.27;0.88;;;;;;;23.99;35.40;100561.84;4540847;28;20048;-67
2023/06/14 01:38:44;;;;;;;1.10;1.00;;;;;;;24.01;35.39;100565.19;4541553;28;20763;-67
2023/06/14 01:40:56;;;;;;;0.98;0.90;;;;;;;24.00;35.49;100565.56;4541074;28;21277;-67
2023/06/14 01:43:11;;;;;;;1.10;1.00;;;;;;;23.99;35.46;100561.84;4551204;28;20489;-67
2023/06/14 01:45:22;;;;;;;1.00;0.80;;;;;;;23.99;35.05;100566.81;4540058;28;20027;-67
2023/06/14 01:47:35;;;;;;;1.33;1.00;;;;;;;24.00;35.02;100571.34;4541576;28;20071;-67
2023/06/14 01:49:46;;;;;;;1.45;1.08;;;;;;;23.99;35.24;100564.72;4541375;28;20032;-67
2023/06/14 01:51:57;;;;;;;1.08;1.00;;;;;;;23.94;35.26;100562.19;4540036;28;20519;-67
2023/06/14 01:54:07;;;;;;;1.02;0.93;;;;;;;23.99;35.39;100566.81;4548029;28;20102;-67
2023/06/14 01:56:18;;;;;;;1.10;1.00;;;;;;;23.98;35.15;100568.00;4540539;28;20072;-67
2023/06/14 01:58:28;;;;;;;0.80;0.80;;;;;;;24.02;34.95;100577.56;4542038;28;20029;-67
2023/06/14 02:00:40;;;;;;;1.00;0.90;;;;;;;24.00;35.01;100571.34;4541935;28;20024;-67
2023/06/14 02:02:50;;;;;;;1.13;0.90;;;;;;;24.01;34.90;100575.88;4540849;28;20587;-67
2023/06/14 02:05:01;;;;;;;1.10;1.00;;;;;;;23.94;35.19;100564.22;4541509;28;20057;-67
2023/06/14 02:07:12;;;;;;;0.80;0.80;;;;;;;23.96;34.81;100568.38;4539738;28;20831;-68
2023/06/14 02:09:23;;;;;;;1.00;0.90;;;;;;;23.99;35.00;100572.56;4539965;28;20029;-68
2023/06/14 02:11:34;;;;;;;1.27;0.90;;;;;;;23.99;34.76;100579.16;4541664;28;20103;-67
2023/06/14 02:13:45;;;;;;;0.93;0.82;;;;;;;23.99;35.07;100579.16;4540665;28;20247;-67
2023/06/14 02:15:55;;;;;;;1.25;0.80;;;;;;;23.97;35.13;100575.84;4540679;28;20037;-68
2023/06/14 02:18:06;;;;;;;1.15;0.90;;;;;;;23.92;35.09;100558.84;4540738;28;20112;-67
2023/06/14 02:20:18;;;;;;;1.20;0.90;;;;;;;23.98;34.68;100571.72;4541784;28;20037;-68
2023/06/14 02:22:28;;;;;;;0.80;0.80;;;;;;;23.98;35.06;100577.50;4541634;28;20724;-68
2023/06/14 02:24:38;;;;;;;1.23;0.90;;;;;;;23.97;34.88;100570.09;4539292;28;20061;-67
2023/06/14 02:26:52;;;;;;;2.10;0.90;;;;;;;23.94;34.72;100570.84;4541012;28;20099;-67
2023/06/14 02:29:02;;;;;;;1.85;1.00;;;;;;;23.95;35.07;100565.88;4540404;28;20071;-68
2023/06/14 02:31:12;;;;;;;1.00;0.90;;;;;;;23.99;34.93;100569.69;4540982;28;20561;-67
2023/06/14 02:33:23;;;;;;;1.00;0.90;;;;;;;24.00;35.09;100580.84;4541038;28;20087;-67
2023/06/14 02:35:34;;;;;;;1.00;0.90;;;;;;;23.97;34.75;100572.97;4540063;28;20037;-67
2023/06/14 02:37:46;;;;;;;1.50;1.00;;;;;;;23.98;35.16;100573.78;4542551;28;20041;-69
2023/06/14 02:39:57;;;;;;;1.10;1.00;;;;;;;23.98;35.05;100577.50;4541797;28;20520;-68
2023/06/14 02:42:08;;;;;;;0.90;0.90;;;;;;;23.92;35.02;100566.66;4540550;28;20936;-68
2023/06/14 02:44:19;;;;;;;0.80;0.80;;;;;;;23.99;35.08;100579.16;4540285;28;20037;-68
2023/06/14 02:46:29;;;;;;;0.93;0.80;;;;;;;23.95;35.38;100575.38;4540258;28;20036;-68
2023/06/14 02:48:40;;;;;;;1.13;0.90;;;;;;;23.89;35.52;100558.81;4537239;28;20627;-69
2023/06/14 02:50:53;;;;;;;0.93;0.70;;;;;;;23.92;35.17;100567.50;4541837;28;20800;-68
2023/06/14 02:53:03;;;;;;;1.17;1.00;;;;;;;23.96;35.00;100573.31;4540654;28;20080;-69
2023/06/14 02:55:14;;;;;;;1.00;0.90;;;;;;;23.99;35.06;100573.38;4542795;28;20194;-69
2023/06/14 02:57:24;;;;;;;0.80;0.80;;;;;;;23.96;34.95;100567.56;4538975;28;20627;-68
2023/06/14 02:59:35;;;;;;;1.02;0.95;;;;;;;23.96;35.31;100568.38;4540989;28;20037;-68
2023/06/14 03:01:48;;;;;;;0.85;0.85;;;;;;;23.97;35.55;100575.84;4541584;28;20047;-69
2023/06/14 03:03:59;;;;;;;0.77;0.77;;;;;;;23.95;35.24;100571.66;4540803;28;20024;-69
2023/06/14 03:06:13;;;;;;;0.90;0.90;;;;;;;23.92;34.76;100573.28;4540513;28;20037;-69
2023/06/14 03:08:26;;;;;;;0.95;0.90;;;;;;;23.95;35.04;100578.25;4541018;28;20654;-68
2023/06/14 03:10:39;;;;;;;0.88;0.80;;;;;;;23.96;34.43;100579.09;4531390;28;20770;-69
2023/06/14 03:12:51;;;;;;;1.08;0.80;;;;;;;23.97;34.71;100584.50;4547955;28;20041;-68
2023/06/14 03:15:03;;;;;;;0.80;0.80;;;;;;;23.95;35.11;100581.13;4548000;28;20044;-68
2023/06/14 03:17:19;;;;;;;1.13;0.80;;;;;;;23.76;35.24;100560.25;4547250;28;20064;-66
2023/06/14 03:19:30;;;;;;;0.82;0.82;;;;;;;23.98;35.20;100593.97;4540429;28;20038;-66
2023/06/14 03:21:44;;;;;;;0.82;0.82;;;;;;;23.96;35.03;100585.66;4539383;28;20398;-66
2023/06/14 03:23:55;;;;;;;0.80;0.80;;;;;;;23.94;35.32;100596.78;4541552;28;20094;-66
2023/06/14 03:26:05;;;;;;;1.00;0.80;;;;;;;23.96;34.99;100593.50;4543634;28;20130;-66
2023/06/14 03:28:16;;;;;;;0.70;0.70;;;;;;;23.94;35.00;100599.66;4530492;28;20033;-66
2023/06/14 03:30:27;;;;;;;0.98;0.80;;;;;;;23.92;35.65;100593.44;4540711;28;20507;-66
2023/06/14 03:32:37;;;;;;;0.82;0.82;;;;;;;23.90;35.32;100587.22;4540024;28;20441;-66
2023/06/14 03:34:50;;;;;;;1.13;0.90;;;;;;;23.93;35.09;100608.72;4539959;28;20852;-66
2023/06/14 03:37:05;;;;;;;1.52;1.00;;;;;;;23.96;35.30;100613.69;4540617;28;20488;-67
2023/06/14 03:39:16;;;;;;;1.13;0.93;;;;;;;23.93;35.72;100609.50;4550668;28;20194;-66
2023/06/14 03:41:27;;;;;;;0.90;0.80;;;;;;;23.94;35.11;100611.19;4543419;28;20032;-66
2023/06/14 03:43:38;;;;;;;1.02;0.80;;;;;;;23.91;35.60;100611.13;4557768;27;20027;-66
2023/06/14 03:45:49;;;;;;;0.88;0.80;;;;;;;23.86;35.67;100608.59;4541705;28;20063;-65
2023/06/14 03:48:00;;;;;;;0.80;0.80;;;;;;;23.92;35.72;100613.63;4542004;28;20033;-66
2023/06/14 03:50:12;;;;;;;1.58;0.90;;;;;;;23.89;35.51;100619.34;4550912;28;20033;-66
2023/06/14 03:52:23;;;;;;;0.95;0.93;;;;;;;23.79;35.72;100605.59;4533566;28;20033;-66
2023/06/14 03:54:34;;;;;;;0.80;0.80;;;;;;;23.86;35.45;100615.19;4550821;28;20040;-66
2023/06/14 03:56:45;;;;;;;0.70;0.70;;;;;;;23.89;35.27;100625.09;4542393;27;20621;-66
2023/06/14 03:58:56;;;;;;;1.00;0.90;;;;;;;23.94;34.82;100642.06;4543749;28;20492;-66
2023/06/14 04:01:09;;;;;;;0.80;0.80;;;;;;;23.90;34.82;100639.13;4543150;28;20033;-66
2023/06/14 04:03:19;;;;;;;0.80;0.80;;;;;;;23.92;34.98;100641.63;4543794;28;20483;-66
2023/06/14 04:05:31;;;;;;;1.10;1.00;;;;;;;23.93;35.18;100644.09;4549837;28;20016;-66
2023/06/14 04:07:44;;;;;;;1.05;0.95;;;;;;;23.94;35.10;100648.69;4544157;28;20076;-66
2023/06/14 04:09:55;;;;;;;1.00;0.90;;;;;;;23.89;34.88;100643.25;4542346;28;20032;-66
2023/06/14 04:12:08;;;;;;;1.05;0.90;;;;;;;23.92;35.03;100648.22;4541738;28;20421;-66
2023/06/14 04:14:19;;;;;;;1.33;0.73;;;;;;;23.93;35.51;100654.84;4541947;28;20045;-66
2023/06/14 04:16:30;;;;;;;1.33;0.98;;;;;;;23.90;35.34;100646.94;4540910;28;20578;-66
2023/06/14 04:18:40;;;;;;;1.10;1.00;;;;;;;23.91;35.14;100663.03;4549890;28;20033;-66
2023/06/14 04:20:51;;;;;;;0.80;0.80;;;;;;;23.92;35.24;100665.53;4542575;28;20485;-66
2023/06/14 04:23:12;;;;;;;1.63;1.00;;;;;;;23.92;35.06;100659.75;4541987;28;20068;-66
2023/06/14 04:25:25;;;;;;;0.93;0.82;;;;;;;23.90;35.75;100667.97;4540711;28;20086;-66
2023/06/14 04:27:38;;;;;;;0.90;0.80;;;;;;;23.89;35.47;100669.19;4544548;28;20114;-66
2023/06/14 04:29:53;;;;;;;1.27;0.90;;;;;;;23.92;35.54;100671.28;4545783;28;21162;-66
2023/06/14 04:32:04;;;;;;;0.90;0.80;;;;;;;23.90;35.58;100667.97;4551596;28;20056;-66
2023/06/14 04:34:17;;;;;;;1.33;0.90;;;;;;;23.89;35.61;100668.34;4543341;28;20495;-65
2023/06/14 04:36:37;;;;;;;0.93;0.90;;;;;;;23.77;35.55;100663.63;4550464;28;20127;-66
2023/06/14 04:38:49;;;;;;;0.98;0.88;;;;;;;23.91;35.54;100686.94;4549422;28;20029;-66
2023/06/14 04:41:02;;;;;;;0.90;0.80;;;;;;;23.88;36.05;100684.00;4542997;28;20126;-66
2023/06/14 04:43:12;;;;;;;1.00;0.90;;;;;;;23.87;36.04;100683.16;4533468;28;20908;-66
2023/06/14 04:45:32;;;;;;;0.93;0.90;;;;;;;23.92;36.56;100705.03;4542099;28;20031;-65
2023/06/14 04:47:43;;;;;;;0.90;0.90;;;;;;;23.88;35.79;100687.69;4525849;28;20036;-65
2023/06/14 04:49:54;;;;;;;1.15;1.00;;;;;;;23.90;35.75;100702.56;4539348;28;20037;-66
2023/06/14 04:52:06;;;;;;;0.98;0.98;;;;;;;23.87;36.26;100697.56;4542376;28;20037;-66
2023/06/14 04:54:25;;;;;;;1.20;0.88;;;;;;;23.88;36.31;100701.28;4549905;28;20717;-66
2023/06/14 04:56:37;;;;;;;1.42;0.95;;;;;;;23.85;36.13;100691.34;4543753;28;20040;-66
2023/06/14 04:58:48;;;;;;;1.15;1.05;;;;;;;23.86;36.20;100693.03;4543060;28;20418;-66
2023/06/14 05:00:59;;;;;;;0.90;0.90;;;;;;;23.88;36.43;100695.53;4539209;28;20571;-66
2023/06/14 05:03:12;;;;;;;1.92;0.95;;;;;;;23.86;35.73;100690.16;4548761;28;20040;-66
2023/06/14 05:05:24;;;;;;;1.10;1.00;;;;;;;23.85;35.70;100690.53;4543559;28;20033;-66
2023/06/14 05:07:35;;;;;;;1.90;1.10;;;;;;;23.83;35.03;100685.16;4540403;28;20036;-66
2023/06/14 05:09:46;;;;;;;1.70;1.05;;;;;;;23.86;35.30;100698.78;4542036;28;20041;-65
2023/06/14 05:11:58;;;;;;;1.35;1.02;;;;;;;23.85;35.72;100694.22;4549471;28;20752;-65
2023/06/14 05:14:11;;;;;;;0.85;0.85;;;;;;;23.81;35.53;100676.06;4542833;28;20060;-66
2023/06/14 05:16:22;;;;;;;0.98;0.93;;;;;;;23.84;35.95;100692.56;4542711;28;21248;-66
2023/06/14 05:18:37;;;;;;;1.00;1.00;;;;;;;23.83;35.44;100688.03;4545798;28;20092;-65
2023/06/14 05:20:47;;;;;;;0.90;0.90;;;;;;;23.89;36.05;100695.13;4542811;28;20036;-65
2023/06/14 05:22:58;;;;;;;1.15;0.90;;;;;;;23.90;36.39;100696.78;4539724;28;20040;-65
2023/06/14 05:25:08;;;;;;;1.75;1.00;;;;;;;23.88;37.09;100686.88;4541658;28;20052;-63
2023/06/14 05:27:19;;;;;;;0.93;0.82;;;;;;;23.86;36.93;100701.69;4539920;28;20183;-66
2023/06/14 05:29:29;;;;;;;0.90;0.90;;;;;;;23.63;36.39;100669.16;4541161;28;20064;-68
2023/06/14 05:31:40;;;;;;;1.00;0.90;;;;;;;23.81;36.78;100704.88;4541733;28;20057;-65
2023/06/14 05:33:50;;;;;;;0.90;0.80;;;;;;;23.78;36.40;100699.91;4541623;28;20196;-65
2023/06/14 05:36:01;;;;;;;1.10;1.00;;;;;;;23.74;36.82;100703.94;4541541;28;20530;-66
2023/06/14 05:38:11;;;;;;;2.88;1.00;;;;;;;23.67;36.66;100703.81;4540190;28;20537;-65
2023/06/14 05:40:22;;;;;;;0.80;0.80;;;;;;;23.63;35.78;100703.75;4539765;28;20124;-65
2023/06/14 05:42:33;;;;;;;1.08;0.90;;;;;;;23.62;36.40;100710.72;4541571;28;20044;-65
2023/06/14 05:44:43;;;;;;;0.80;0.77;;;;;;;23.50;36.10;100703.09;4542157;28;20037;-65
2023/06/14 05:46:53;;;;;;;1.70;0.90;;;;;;;23.47;36.41;100708.81;4540632;28;20044;-65
2023/06/14 05:49:05;;;;;;;1.15;0.80;;;;;;;23.45;36.12;100703.41;4541252;28;20192;-65
2023/06/14 05:51:18;;;;;;;0.90;0.90;;;;;;;23.46;36.24;100710.03;4542071;28;20036;-65
2023/06/14 05:53:29;;;;;;;1.02;1.00;;;;;;;23.42;36.26;100709.16;4540588;28;20044;-65
2023/06/14 05:55:39;;;;;;;1.13;1.00;;;;;;;23.42;36.28;100712.84;4540752;28;20040;-65
2023/06/14 05:57:50;;;;;;;0.98;0.90;;;;;;;23.41;36.61;100711.19;4542163;28;20048;-65
2023/06/14 06:00:00;;;;;;;1.00;1.00;;;;;;;23.36;36.32;100717.25;4541117;28;20067;-65
2023/06/14 06:02:11;;;;;;;1.00;0.90;;;;;;;23.34;36.57;100716.81;4541037;28;20058;-65
2023/06/14 06:04:23;;;;;;;1.88;0.90;;;;;;;23.33;36.19;100717.19;4539962;28;20037;-65
2023/06/14 06:06:36;;;;;;;1.20;0.90;;;;;;;23.31;36.63;100720.44;4538257;28;20045;-65
2023/06/14 06:08:46;;;;;;;2.33;0.82;;;;;;;23.30;36.56;100718.81;4541391;28;20017;-65
2023/06/14 06:10:57;;;;;;;0.90;0.80;;;;;;;23.25;36.88;100718.22;4539181;28;20041;-65
2023/06/14 06:13:07;;;;;;;1.05;0.80;;;;;;;23.13;36.74;100702.00;4540164;28;20036;-67
2023/06/14 06:15:18;;;;;;;0.90;0.80;;;;;;;22.99;36.25;100689.34;4541104;28;20112;-66
2023/06/14 06:17:29;;;;;;;0.60;0.60;;;;;;;23.13;36.33;100729.94;4540666;28;20067;-67
2023/06/14 06:19:39;;;;;;;0.98;0.60;;;;;;;23.12;35.77;100722.53;4539615;28;20257;-66
2023/06/14 06:21:50;;;;;;;0.68;0.63;;;;;;;23.06;35.94;100712.50;4541024;28;20052;-66
2023/06/14 06:24:03;;;;;;;0.50;0.50;;;;;;;23.08;35.33;100719.56;4539589;28;20623;-65
2023/06/14 06:26:13;;;;;;;0.50;0.50;;;;;;;23.06;35.32;100719.13;4548806;28;20037;-65
2023/06/14 06:28:24;;;;;;;0.43;0.40;;;;;;;23.04;34.66;100726.47;4539474;28;20049;-65
2023/06/14 06:30:35;;;;;;;0.47;0.47;;;;;;;23.02;34.46;100729.75;4542002;28;20024;-65
2023/06/14 06:32:47;;;;;;;0.85;0.50;;;;;;;22.96;34.96;100725.47;4540779;28;20099;-65
2023/06/14 06:34:59;;;;;;;0.43;0.43;;;;;;;22.81;34.75;100699.66;4540071;28;21210;-64
2023/06/14 06:37:10;;;;;;;0.75;0.50;;;;;;;22.97;35.24;100732.09;4540774;28;20033;-64
2023/06/14 06:39:20;;;;;;;0.40;0.35;;;;;;;22.71;35.35;100706.88;4539646;28;20045;-65
2023/06/14 06:41:31;;;;;;;0.32;0.32;;;;;;;22.79;35.16;100730.88;4539726;28;20043;-65
2023/06/14 06:43:41;;;;;;;0.40;0.40;;;;;;;22.79;35.54;100730.88;4539778;28;20025;-65
2023/06/14 06:45:53;;;;;;;0.40;0.40;;;;;;;22.79;35.19;100736.63;4542366;28;21083;-64
2023/06/14 06:48:04;;;;;;;0.50;0.50;;;;;;;22.80;35.02;100726.78;4540930;28;20063;-63
2023/06/14 06:50:15;;;;;;;0.40;0.40;;;;;;;22.74;35.01;100723.38;4549764;28;20029;-63
2023/06/14 06:52:26;;;;;;;0.52;0.50;;;;;;;22.83;34.82;100740.44;4540476;28;20574;-63
2023/06/14 06:54:36;;;;;;;0.63;0.60;;;;;;;22.85;34.97;100744.56;4538178;28;20063;-63
2023/06/14 06:56:46;;;;;;;0.65;0.50;;;;;;;22.80;35.66;100726.78;4539142;28;20025;-63
2023/06/14 06:58:57;;;;;;;0.55;0.50;;;;;;;22.90;35.21;100735.66;4540199;28;20429;-63
2023/06/14 07:01:09;;;;;;;0.50;0.50;;;;;;;22.92;35.60;100736.09;4540775;28;20035;-63
2023/06/14 07:03:19;;;;;;;0.95;0.70;;;;;;;22.95;35.53;100743.97;4539874;28;20036;-63
2023/06/14 07:05:30;;;;;;;0.75;0.60;;;;;;;22.96;35.69;100741.94;4539990;28;20033;-67
2023/06/14 07:07:40;;;;;;;0.47;0.45;;;;;;;22.98;36.24;100745.25;4538950;28;20896;-67
2023/06/14 07:09:51;;;;;;;0.68;0.50;;;;;;;22.98;36.27;100745.25;4542837;28;20412;-67
2023/06/14 07:12:01;;;;;;;0.45;0.40;;;;;;;22.87;35.43;100727.78;4542777;28;20045;-67
2023/06/14 07:14:12;;;;;;;0.50;0.50;;;;;;;22.91;35.47;100734.41;4542410;28;20041;-67
2023/06/14 07:16:23;;;;;;;0.70;0.60;;;;;;;23.01;35.20;100750.25;4543212;28;20041;-67
2023/06/14 07:18:33;;;;;;;0.73;0.73;;;;;;;22.99;35.83;100747.75;4543036;28;20080;-68
2023/06/14 07:20:44;;;;;;;0.52;0.50;;;;;;;22.99;35.81;100746.94;4541857;28;20044;-67
2023/06/14 07:22:55;;;;;;;0.50;0.50;;;;;;;23.00;35.64;100754.34;4542875;28;20033;-68
2023/06/14 07:25:05;;;;;;;0.80;0.60;;;;;;;22.97;35.39;100744.44;4542603;28;20068;-67
2023/06/14 07:27:16;;;;;;;0.52;0.52;;;;;;;22.86;35.34;100725.28;4542857;28;20047;-67
2023/06/14 07:29:26;;;;;;;0.60;0.60;;;;;;;22.95;35.85;100746.00;4543077;28;20041;-67
2023/06/14 07:31:37;;;;;;;0.65;0.65;;;;;;;23.00;35.74;100754.34;4542918;28;20029;-67
2023/06/14 07:33:47;;;;;;;0.60;0.60;;;;;;;23.02;35.43;100767.16;4543628;28;20080;-67
2023/06/14 07:35:58;;;;;;;1.05;0.50;;;;;;;22.98;35.66;100759.66;4542688;28;20032;-67
2023/06/14 07:38:08;;;;;;;0.47;0.47;;;;;;;23.06;36.02;100770.09;4541875;28;20036;-67
2023/06/14 07:40:19;;;;;;;0.60;0.60;;;;;;;23.03;36.03;100763.06;4542853;28;20499;-67
2023/06/14 07:42:29;;;;;;;0.50;0.50;;;;;;;23.04;36.05;100761.03;4550242;28;20564;-67
2023/06/14 07:44:39;;;;;;;0.50;0.50;;;;;;;23.08;35.71;100767.69;4543299;28;20550;-67
2023/06/14 07:46:50;;;;;;;0.50;0.50;;;;;;;;;;4544311;28;20041;-68
2023/06/14 07:49:00;;;;;;;0.40;0.40;;;;;;;23.05;35.53;100763.53;4542342;28;20455;-68
2023/06/14 07:51:11;;;;;;;0.65;0.60;;;;;;;22.99;35.82;100752.69;4543948;28;20041;-67
2023/06/14 07:53:21;;;;;;;0.70;0.60;;;;;;;23.07;35.85;100766.03;4533933;28;20507;-67
2023/06/14 07:55:33;;;;;;;0.52;0.52;;;;;;;23.05;35.70;100745.41;4542194;28;20095;-67
2023/06/14 07:57:44;;;;;;;0.63;0.60;;;;;;;23.06;35.81;100764.34;4542232;28;20033;-67
2023/06/14 07:59:54;;;;;;;0.60;0.60;;;;;;;23.07;36.62;100763.97;4540044;28;20025;-67
2023/06/14 08:02:05;;;;;;;0.50;0.50;;;;;;;23.10;35.93;100771.81;4542177;28;20075;-67
2023/06/14 08:04:15;;;;;;;0.40;0.40;;;;;;;23.10;35.68;100771.81;4540753;28;20316;-67
2023/06/14 08:06:26;;;;;;;0.82;0.40;;;;;;;23.10;35.41;100765.25;4540619;28;20044;-67
2023/06/14 08:08:36;;;;;;;0.40;0.40;;;;;;;23.13;35.25;100773.13;4541587;28;20040;-68
2023/06/14 08:10:47;;;;;;;0.75;0.60;;;;;;;23.12;35.32;100774.34;4542325;28;20033;-68
2023/06/14 08:12:57;;;;;;;0.50;0.50;;;;;;;23.11;35.53;100772.66;4540468;28;20025;-68
2023/06/14 08:15:08;;;;;;;0.40;0.40;;;;;;;23.12;35.08;100774.34;4540995;28;20033;-67
2023/06/14 08:17:19;;;;;;;0.88;0.50;;;;;;;23.08;35.21;100770.56;4549314;28;20020;-69
2023/06/14 08:19:30;;;;;;;0.50;0.50;;;;;;;23.13;35.41;100776.00;4542641;28;20057;-68
2023/06/14 08:21:40;;;;;;;0.40;0.40;;;;;;;23.15;35.83;100779.34;4541014;28;20131;-68
2023/06/14 08:23:52;;;;;;;0.40;0.40;;;;;;;23.00;36.05;100752.31;4541227;28;20791;-68
2023/06/14 08:26:04;;;;;;;0.70;0.50;;;;;;;23.13;36.36;100771.09;4541918;28;20037;-68
2023/06/14 08:28:15;;;;;;;1.05;0.50;;;;;;;23.16;36.16;100773.22;4541221;28;20040;-68
2023/06/14 08:30:26;;;;;;;0.70;0.60;;;;;;;23.16;36.22;100775.25;4548866;28;20156;-67
2023/06/14 08:32:36;;;;;;;0.55;0.50;;;;;;;23.15;35.82;100767.84;4538275;28;20063;-67
2023/06/14 08:34:47;;;;;;;0.50;0.50;;;;;;;23.10;35.67;100765.25;4541038;28;20037;-68
2023/06/14 08:36:57;;;;;;;0.65;0.60;;;;;;;23.15;36.10;100776.47;4547285;28;20039;-68
2023/06/14 08:39:09;;;;;;;0.65;0.60;;;;;;;23.14;35.83;100769.03;4555602;28;20055;-68
2023/06/14 08:41:24;;;;;;;0.63;0.57;;;;;;;23.14;35.46;100771.91;4538543;28;20674;-67
2023/06/14 08:43:34;;;;;;;0.60;0.60;;;;;;;23.17;35.32;100777.75;4548872;28;20094;-68
2023/06/14 08:45:48;;;;;;;0.68;0.65;;;;;;;23.19;35.79;100777.38;4541544;28;20118;-69
2023/06/14 08:47:59;;;;;;;0.70;0.70;;;;;;;23.21;35.98;100786.47;4538537;28;20620;-67
2023/06/14 08:50:10;;;;;;;0.70;0.70;;;;;;;23.20;36.18;100787.66;4531092;28;20045;-68
2023/06/14 08:52:22;;;;;;;0.63;0.63;;;;;;;23.14;36.02;100767.00;4540207;28;20064;-67
2023/06/14 08:54:36;;;;;;;0.63;0.60;;;;;;;23.07;36.68;100755.31;4541456;28;20036;-67
2023/06/14 08:56:48;;;;;;;0.65;0.65;;;;;;;23.18;36.27;100778.59;4541229;28;20127;-68
2023/06/14 08:59:02;;;;;;;0.70;0.70;;;;;;;23.18;37.04;100778.59;4541571;28;20364;-68
2023/06/14 09:01:14;;;;;;;0.70;0.70;;;;;;;23.21;37.63;100772.06;4542894;28;20040;-68
2023/06/14 09:03:29;;;;;;;0.60;0.60;;;;;;;23.21;38.05;100772.88;4541644;28;20144;-68
2023/06/14 09:05:39;;;;;;;0.70;0.70;;;;;;;23.04;37.03;100766.78;4547182;28;20033;-68
2023/06/14 09:07:50;;;;;;;0.80;0.80;;;;;;;23.20;36.79;100774.09;4525858;28;20517;-68
2023/06/14 09:10:11;;;;;;;0.68;0.68;;;;;;;23.24;37.11;100786.53;4541089;28;20572;-68
2023/06/14 09:12:22;;;;;;;0.60;0.60;;;;;;;23.20;36.98;100782.75;4540184;28;21030;-68
2023/06/14 09:14:38;;;;;;;0.60;0.60;;;;;;;23.23;37.08;100787.72;4541101;28;20193;-68
2023/06/14 09:16:52;;;;;;;0.70;0.70;;;;;;;23.16;37.04;100769.50;4541554;28;21063;-68
2023/06/14 09:19:02;;;;;;;0.70;0.70;;;;;;;23.26;37.20;100789.88;4540777;28;20020;-68
2023/06/14 09:21:15;;;;;;;0.60;0.60;;;;;;;23.25;37.05;100785.34;4540265;28;20103;-67
2023/06/14 09:23:25;;;;;;;0.68;0.68;;;;;;;23.18;36.73;100782.28;4541195;28;20139;-68
2023/06/14 09:25:43;;;;;;;0.85;0.77;;;;;;;23.25;36.34;100791.09;4542753;28;20033;-69
2023/06/14 09:27:53;;;;;;;0.70;0.70;;;;;;;23.09;36.24;100763.56;4539162;28;20654;-69
2023/06/14 09:30:05;;;;;;;0.88;0.70;;;;;;;23.27;36.27;100787.84;4548329;28;20198;-68
2023/06/14 09:32:15;;;;;;;1.25;0.80;;;;;;;23.29;36.14;100794.06;4539214;28;20651;-69
2023/06/14 09:34:25;;;;;;;1.60;0.88;;;;;;;23.27;36.82;100793.59;4542838;28;20075;-69
2023/06/14 09:36:37;;;;;;;2.05;0.80;;;;;;;23.21;36.48;100784.41;4540233;28;20083;-68
2023/06/14 09:39:05;;;;;;;0.70;0.70;;;;;;;23.29;36.26;100794.88;4540017;28;20032;-68
2023/06/14 09:41:16;;;;;;;0.80;0.80;;;;;;;23.27;36.30;100793.59;4540758;28;20047;-69
2023/06/14 09:43:27;;;;;;;0.80;0.80;;;;;;;23.26;36.36;100792.75;4540015;28;20040;-69
2023/06/14 09:45:40;;;;;;;0.80;0.80;;;;;;;23.31;36.20;100788.72;4539479;28;20028;-69
2023/06/14 09:47:51;;;;;;;0.73;0.70;;;;;;;23.27;35.98;100794.44;4539846;28;20073;-68
2023/06/14 09:50:01;;;;;;;0.73;0.73;;;;;;;23.30;35.72;100792.84;4543612;28;20098;-69
2023/06/14 09:52:16;;;;;;;0.80;0.80;;;;;;;23.29;35.59;100791.19;4541354;28;20032;-69
2023/06/14 09:54:28;;;;;;;0.85;0.85;;;;;;;23.30;36.01;100793.69;4548079;28;20159;-69
2023/06/14 09:56:44;;;;;;;1.05;1.00;;;;;;;23.34;36.60;100796.66;4542298;28;20036;-69
2023/06/14 09:58:56;;;;;;;0.80;0.80;;;;;;;23.33;36.04;100786.31;4541158;28;21105;-69
2023/06/14 10:01:08;;;;;;;0.65;0.65;;;;;;;23.29;36.79;100786.25;4540224;28;20655;-68
2023/06/14 10:03:25;;;;;;;0.82;0.82;;;;;;;23.29;36.96;100780.47;4540187;28;20206;-68
2023/06/14 10:05:36;;;;;;;0.80;0.80;;;;;;;23.32;37.21;100779.75;4539438;28;20032;-68
2023/06/14 10:07:47;;;;;;;0.82;0.77;;;;;;;23.34;36.48;100788.81;4539589;28;20040;-69
2023/06/14 10:09:58;;;;;;;0.80;0.80;;;;;;;23.35;36.74;100778.13;4549065;28;20048;-69
2023/06/14 10:12:08;;;;;;;0.80;0.80;;;;;;;23.33;36.40;100784.28;4540850;28;20036;-68
2023/06/14 10:14:19;;;;;;;0.70;0.70;;;;;;;23.34;36.57;100788.00;4539975;28;20052;-64